Time;durP1;ratioP1;P1;durP2;ratioP2;P2;SDS_P1;SDS_P2;PMS_P1;PMS_P2;Temp;Humidity;BMP_temperature;BMP_pressure;BME280_temperature;BME280_humidity;BME280_pressure;Samples;Min_cycle;Max_cycle;Signal;HPM_P1;HPM_P2
2021/05/13 00:00:09;;;;;;;6.70;4.13;;;;;;;12.11;100.00;96864.56;5010981;28;20486;-77
2021/05/13 00:02:34;;;;;;;7.18;4.05;;;;;;;12.08;100.00;96865.22;5010777;28;20046;-78
2021/05/13 00:05:00;;;;;;;4.82;4.00;;;;;;;12.03;100.00;96862.66;5010717;28;20084;-79
2021/05/13 00:07:25;;;;;;;6.63;4.38;;;;;;;11.84;100.00;96858.75;4993043;28;20518;-77
2021/05/13 00:09:52;;;;;;;6.03;3.72;;;;;;;11.77;100.00;96854.59;4993023;28;20387;-78
2021/05/13 00:13:17;;;;;;;7.55;3.67;;;;;;;11.68;100.00;96851.03;5010505;28;20028;-78
2021/05/13 00:15:20;;;;;;;7.30;3.70;;;;;;;11.71;100.00;96861.41;4993191;28;20058;-78
2021/05/13 00:17:45;;;;;;;3.78;3.38;;;;;;;11.65;100.00;96854.44;4992969;28;20112;-78
2021/05/13 00:20:14;;;;;;;4.72;4.28;;;;;;;11.67;100.00;96859.59;4995359;28;20060;-77
2021/05/13 00:22:39;;;;;;;5.68;3.50;;;;;;;11.65;100.00;96851.69;5019712;28;20491;-79
2021/05/13 00:25:06;;;;;;;6.43;3.50;;;;;;;11.68;100.00;96859.25;5021655;28;20033;-79
2021/05/13 00:27:32;;;;;;;6.65;4.22;;;;;;;11.65;100.00;96846.22;5029633;28;20040;-78
2021/05/13 00:29:57;;;;;;;5.65;3.47;;;;;;;11.81;100.00;96857.47;5030323;28;20395;-77
2021/05/13 00:32:22;;;;;;;8.43;3.70;;;;;;;11.75;100.00;96842.34;5030247;28;20026;-78
2021/05/13 00:34:48;;;;;;;7.47;3.55;;;;;;;11.86;100.00;96856.47;5012400;28;20053;-77
2021/05/13 00:37:14;;;;;;;4.35;3.38;;;;;;;11.91;100.00;96853.53;5029988;28;20022;-77
2021/05/13 00:39:39;;;;;;;6.05;3.70;;;;;;;11.86;100.00;96849.06;5012300;28;20138;-78
2021/05/13 00:42:05;;;;;;;6.88;3.53;;;;;;;11.92;100.00;96855.16;5012173;28;20013;-77
2021/05/13 00:44:34;;;;;;;4.05;3.45;;;;;;;12.04;100.00;96841.53;5012012;28;20051;-77
2021/05/13 00:47:00;;;;;;;4.85;3.42;;;;;;;12.02;100.00;96849.31;5017902;28;20022;-77
2021/05/13 00:49:25;;;;;;;4.07;3.05;;;;;;;12.04;100.00;96838.78;4992881;28;20040;-78
2021/05/13 00:51:51;;;;;;;5.85;4.47;;;;;;;11.98;100.00;96848.34;4992644;28;20415;-79
2021/05/13 00:54:20;;;;;;;7.43;3.67;;;;;;;11.96;100.00;96834.19;5010199;28;20022;-79
2021/05/13 00:56:45;;;;;;;8.32;4.03;;;;;;;12.13;100.00;96839.53;5000274;28;20041;-80
2021/05/13 00:59:12;;;;;;;7.10;3.53;;;;;;;12.08;100.00;96834.25;5019237;28;20112;-80
2021/05/13 01:04:14;;;;;;;5.22;3.90;;;;;;;11.96;100.00;96839.66;5009996;28;20045;-81
2021/05/13 01:06:40;;;;;;;8.65;3.42;;;;;;;11.96;100.00;96840.47;4992254;28;20034;-78
2021/05/13 01:09:10;;;;;;;4.97;3.72;;;;;;;11.92;100.00;96835.97;4992444;28;20037;-78
2021/05/13 01:11:38;;;;;;;5.40;3.30;;;;;;;11.94;100.00;96842.72;4987619;28;20030;-78
2021/05/13 01:14:18;;;;;;;6.35;3.33;;;;;;;12.02;100.00;96832.84;4989239;28;20806;-79
2021/05/13 01:19:29;;;;;;;3.58;2.58;;;;;;;11.87;100.00;96834.25;4990741;28;20042;-76
2021/05/13 01:21:55;;;;;;;2.33;2.10;;;;;;;11.75;100.00;96829.44;4977199;28;20031;-75
2021/05/13 01:24:21;;;;;;;2.80;2.42;;;;;;;11.66;100.00;96831.41;4994146;28;20034;-75
2021/05/13 01:26:47;;;;;;;4.70;1.65;;;;;;;11.60;100.00;96824.50;4976728;28;20046;-75
2021/05/13 01:29:16;;;;;;;2.72;2.17;;;;;;;11.62;100.00;96816.75;4976903;28;20030;-75
2021/05/13 01:31:42;;;;;;;4.97;1.75;;;;;;;11.59;100.00;96825.63;5001962;28;20041;-76
2021/05/13 01:34:09;;;;;;;3.08;1.95;;;;;;;11.47;100.00;96817.31;5001480;28;20026;-76
2021/05/13 01:36:35;;;;;;;1.83;1.63;;;;;;;11.53;100.00;96826.94;5006830;28;20528;-76
2021/05/13 01:39:02;;;;;;;3.45;2.15;;;;;;;11.54;100.00;96820.34;5032986;28;20040;-76
2021/05/13 01:41:28;;;;;;;4.57;2.45;;;;;;;11.59;100.00;96814.66;5019860;28;20026;-77
2021/05/13 01:43:53;;;;;;;3.05;2.30;;;;;;;11.59;100.00;96814.66;5012676;28;20081;-78
2021/05/13 01:46:19;;;;;;;3.15;2.40;;;;;;;11.61;100.00;96812.44;5013343;28;20033;-77
2021/05/13 01:48:45;;;;;;;9.82;2.92;;;;;;;11.58;100.00;96820.50;4995580;28;20033;-78
2021/05/13 01:51:11;;;;;;;2.70;2.50;;;;;;;11.63;100.00;96810.16;4995317;28;20030;-79
2021/05/13 01:53:41;;;;;;;3.50;3.10;;;;;;;11.64;100.00;96809.03;4995233;28;20026;-78
2021/05/13 01:56:08;;;;;;;4.45;3.72;;;;;;;11.57;100.00;96822.44;5012986;28;20036;-77
2021/05/13 01:58:34;;;;;;;4.40;3.25;;;;;;;11.69;100.00;96808.03;4995725;28;20061;-77
2021/05/13 02:01:00;;;;;;;11.52;2.75;;;;;;;11.75;100.00;96812.22;5012708;28;20050;-77
2021/05/13 02:03:26;;;;;;;2.90;2.45;;;;;;;11.66;100.00;96800.47;5012829;28;20034;-77
2021/05/13 02:05:52;;;;;;;3.45;2.50;;;;;;;11.64;100.00;96809.03;5027191;28;20045;-76
2021/05/13 02:08:17;;;;;;;5.47;2.55;;;;;;;11.61;100.00;96801.47;5024763;28;20034;-76
2021/05/13 02:10:42;;;;;;;3.63;2.55;;;;;;;11.63;100.00;96798.38;5013373;28;20105;-78
2021/05/13 02:13:08;;;;;;;3.47;2.72;;;;;;;11.57;100.00;96806.00;4995786;28;20024;-79
2021/05/13 02:15:33;;;;;;;3.05;2.83;;;;;;;11.54;100.00;96790.22;4995786;28;20870;-76
2021/05/13 02:17:59;;;;;;;3.47;2.80;;;;;;;11.57;100.00;96803.25;4995837;28;20026;-77
2021/05/13 02:20:25;;;;;;;3.65;2.80;;;;;;;11.60;100.00;96797.13;5013195;28;20026;-77
2021/05/13 02:22:51;;;;;;;2.55;2.35;;;;;;;11.66;100.00;96801.28;5013276;28;20017;-78
2021/05/13 02:25:17;;;;;;;4.15;2.65;;;;;;;11.76;100.00;96800.94;4993602;28;20115;-77
2021/05/13 02:27:43;;;;;;;2.17;1.95;;;;;;;11.72;100.00;96794.50;4995106;28;20126;-77
2021/05/13 02:30:11;;;;;;;2.45;2.13;;;;;;;11.81;100.00;96789.78;4995612;28;20068;-77
2021/05/13 02:32:37;;;;;;;7.20;2.58;;;;;;;11.75;100.00;96796.56;4995510;28;20037;-77
2021/05/13 02:35:04;;;;;;;6.53;2.90;;;;;;;11.70;100.00;96772.13;4994870;28;20455;-76
2021/05/13 02:37:30;;;;;;;2.22;2.03;;;;;;;11.67;100.00;96783.72;4994965;28;20717;-77
2021/05/13 02:39:55;;;;;;;3.15;1.58;;;;;;;11.70;100.00;96794.03;4994656;28;20031;-77
2021/05/13 02:42:20;;;;;;;2.22;1.85;;;;;;;11.63;100.00;96781.94;5012414;28;20526;-78
2021/05/13 02:44:46;;;;;;;3.00;1.42;;;;;;;11.62;100.00;96781.16;5012734;28;20475;-77
2021/05/13 02:47:11;;;;;;;2.70;1.25;;;;;;;11.48;100.00;96777.84;4995041;28;20033;-76
2021/05/13 02:49:37;;;;;;;2.85;1.70;;;;;;;11.48;100.00;96774.31;4994665;28;20072;-76
2021/05/13 02:52:04;;;;;;;4.20;1.50;;;;;;;11.33;100.00;96772.94;4994911;28;20080;-77
2021/05/13 02:54:29;;;;;;;2.00;1.60;;;;;;;11.29;100.00;96766.50;4994705;28;20402;-77
2021/05/13 02:56:54;;;;;;;3.20;1.85;;;;;;;11.30;100.00;96773.59;4994967;28;20034;-76
2021/05/13 02:59:28;;;;;;;1.67;1.30;;;;;;;11.32;100.00;96773.25;4995084;28;20121;-75
2021/05/13 03:01:53;;;;;;;2.13;1.23;;;;;;;11.32;100.00;96778.72;5012287;28;20077;-76
2021/05/13 03:04:18;;;;;;;3.95;1.55;;;;;;;11.31;100.00;96780.66;4994650;28;20029;-78
2021/05/13 03:06:44;;;;;;;2.65;1.90;;;;;;;11.32;100.00;96771.31;5012176;28;20044;-76
2021/05/13 03:09:10;;;;;;;1.70;1.60;;;;;;;11.42;100.00;96775.63;4994408;28;20084;-77
2021/05/13 03:11:35;;;;;;;1.85;1.55;;;;;;;11.41;100.00;96774.81;4994479;28;20049;-77
2021/05/13 03:14:02;;;;;;;4.95;1.88;;;;;;;11.43;100.00;96769.84;5011994;28;20521;-78
2021/05/13 03:16:29;;;;;;;2.22;1.65;;;;;;;11.36;100.00;96758.59;4995197;28;20026;-79
2021/05/13 03:18:56;;;;;;;4.28;2.13;;;;;;;11.40;100.00;96753.25;5011846;28;20084;-78
2021/05/13 03:21:34;;;;;;;3.03;1.88;;;;;;;11.41;100.00;96763.88;4994651;28;20036;-76
2021/05/13 03:29:12;;;;;;;1.50;1.40;;;;;;;11.48;100.00;96760.63;5012235;28;20487;-76
2021/05/13 03:31:37;;;;;;;1.70;1.60;;;;;;;11.46;100.00;96762.88;4994004;28;20073;-75
2021/05/13 03:34:03;;;;;;;6.32;2.40;;;;;;;11.54;100.00;96759.28;5012077;28;20017;-76
2021/05/13 03:36:31;;;;;;;4.20;1.52;;;;;;;11.61;100.00;96762.31;5012480;28;20387;-76
2021/05/13 03:38:56;;;;;;;1.55;1.42;;;;;;;11.58;100.00;96758.31;5003784;28;20034;-79
2021/05/13 03:41:22;;;;;;;3.38;2.10;;;;;;;11.59;100.00;96759.13;4998464;28;20014;-77
2021/05/13 03:43:47;;;;;;;4.32;1.85;;;;;;;11.52;100.00;96754.16;4993982;28;20064;-76
2021/05/13 03:46:13;;;;;;;1.90;1.70;;;;;;;11.60;100.00;96760.72;5011469;28;20793;-76
2021/05/13 03:48:38;;;;;;;2.20;1.45;;;;;;;11.58;100.00;96752.84;4994098;28;20486;-76
2021/05/13 03:51:04;;;;;;;2.40;2.20;;;;;;;11.52;100.00;96756.91;4994159;28;20037;-76
2021/05/13 03:53:29;;;;;;;3.45;1.92;;;;;;;11.49;100.00;96749.34;5011539;28;20483;-76
2021/05/13 03:55:54;;;;;;;2.97;1.88;;;;;;;11.57;100.00;96751.22;5010226;28;20781;-77
2021/05/13 03:58:23;;;;;;;1.60;1.50;;;;;;;11.53;100.00;96750.28;4993524;28;20032;-77
2021/05/13 04:03:21;;;;;;;4.22;1.80;;;;;;;11.61;100.00;96743.16;5011433;28;20041;-76
2021/05/13 04:05:47;;;;;;;2.72;1.70;;;;;;;11.52;100.00;96743.22;5011029;28;20088;-76
2021/05/13 04:08:14;;;;;;;6.38;2.03;;;;;;;11.45;100.00;96740.19;5011052;28;20030;-77
2021/05/13 04:10:40;;;;;;;2.58;2.13;;;;;;;11.52;100.00;96743.22;5011251;28;20407;-76
2021/05/13 04:13:09;;;;;;;2.22;1.70;;;;;;;11.51;100.00;96741.59;4993150;28;20026;-76
2021/05/13 04:15:35;;;;;;;3.53;1.95;;;;;;;11.79;100.00;96744.66;5011077;28;20435;-75
2021/05/13 04:18:00;;;;;;;3.08;1.75;;;;;;;11.86;100.00;96749.63;4993573;28;20109;-76
2021/05/13 04:20:26;;;;;;;3.55;2.17;;;;;;;11.89;100.00;96741.53;4993335;28;20494;-75
2021/05/13 04:22:51;;;;;;;3.35;2.10;;;;;;;11.85;100.00;96740.59;4993450;28;20036;-76
2021/05/13 04:25:17;;;;;;;2.97;1.90;;;;;;;11.79;100.00;96744.66;5011118;28;20034;-76
2021/05/13 04:27:42;;;;;;;2.13;1.92;;;;;;;11.85;100.00;96739.78;5010644;28;20030;-77
2021/05/13 04:30:08;;;;;;;2.10;1.88;;;;;;;11.78;100.00;96746.59;5011068;28;20029;-76
2021/05/13 04:32:34;;;;;;;1.95;1.75;;;;;;;11.78;100.00;96738.38;4993251;28;20033;-78
2021/05/13 04:35:00;;;;;;;4.00;1.88;;;;;;;11.77;100.00;96750.50;4997134;28;20026;-75
2021/05/13 04:37:25;;;;;;;2.33;1.95;;;;;;;11.78;100.00;96757.56;5008212;28;20033;-77
2021/05/13 04:39:51;;;;;;;2.40;1.83;;;;;;;11.79;100.00;96744.66;4974031;28;20038;-78
2021/05/13 04:42:17;;;;;;;14.02;2.10;;;;;;;11.86;100.00;96750.44;4990113;28;20105;-78
2021/05/13 04:44:42;;;;;;;6.82;1.70;;;;;;;11.85;100.00;96746.06;4972752;28;20117;-77
2021/05/13 04:49:48;;;;;;;8.50;3.08;;;;;;;11.93;100.00;96741.69;4991093;28;20125;-75
2021/05/13 04:52:14;;;;;;;3.00;2.63;;;;;;;12.20;99.38;96752.91;4974026;28;20181;-76
2021/05/13 04:54:39;;;;;;;3.10;2.40;;;;;;;12.20;98.84;96746.59;4990706;28;20042;-75
2021/05/13 04:57:05;;;;;;;3.38;2.40;;;;;;;12.23;98.68;96746.75;4974028;28;20814;-78
2021/05/13 04:59:30;;;;;;;4.82;2.05;;;;;;;12.11;99.87;96737.66;4994694;28;20042;-77
2021/05/13 05:01:55;;;;;;;1.95;1.77;;;;;;;12.19;100.00;96747.75;4977535;28;20049;-76
2021/05/13 05:04:21;;;;;;;4.97;2.85;;;;;;;12.19;100.00;96745.00;4994871;28;20740;-80
2021/05/13 05:06:46;;;;;;;2.85;2.15;;;;;;;12.49;98.87;96732.00;4994511;28;20031;-75
2021/05/13 05:09:12;;;;;;;2.35;2.03;;;;;;;12.45;97.17;96742.84;4994857;28;20387;-76
2021/05/13 05:11:37;;;;;;;5.63;2.00;;;;;;;12.41;97.99;96736.41;4976717;28;20038;-76
2021/05/13 05:14:03;;;;;;;2.75;2.55;;;;;;;12.65;96.75;96747.50;4994327;28;20092;-76
2021/05/13 05:16:28;;;;;;;3.42;2.53;;;;;;;12.68;95.89;96735.84;4994155;28;20498;-74
2021/05/13 05:18:54;;;;;;;12.85;3.47;;;;;;;12.65;96.00;96724.75;4995773;28;20128;-75
2021/05/13 05:21:19;;;;;;;3.38;2.35;;;;;;;12.79;94.95;96736.19;5013896;28;20030;-75
2021/05/13 05:23:44;;;;;;;2.53;1.90;;;;;;;12.83;94.62;96726.97;5014057;28;20032;-76
2021/05/13 05:26:10;;;;;;;2.13;1.92;;;;;;;12.81;94.74;96729.22;5014107;28;20041;-75
2021/05/13 05:28:35;;;;;;;4.00;2.13;;;;;;;12.89;94.72;96731.09;4996292;28;20028;-76
2021/05/13 05:31:01;;;;;;;2.13;2.03;;;;;;;13.10;93.49;96731.03;4995545;28;20099;-75
2021/05/13 05:33:27;;;;;;;4.05;2.20;;;;;;;13.26;92.68;96731.97;4995476;28;20025;-76
2021/05/13 05:35:52;;;;;;;4.10;2.40;;;;;;;13.33;91.37;96743.19;4996277;28;20502;-75
2021/05/13 05:38:19;;;;;;;7.80;2.35;;;;;;;13.33;91.93;96734.13;5013719;28;20021;-76
2021/05/13 05:40:45;;;;;;;7.60;2.25;;;;;;;13.42;91.04;96734.81;5012991;28;20475;-74
2021/05/13 05:43:10;;;;;;;3.05;2.42;;;;;;;13.65;89.99;96730.47;4995135;28;20049;-76
2021/05/13 05:45:35;;;;;;;5.85;2.60;;;;;;;13.67;88.87;96741.91;5013388;28;20038;-75
2021/05/13 05:48:01;;;;;;;6.90;2.85;;;;;;;13.55;88.84;96733.69;5003179;28;20080;-75
2021/05/13 05:50:28;;;;;;;5.10;2.17;;;;;;;13.58;89.23;96729.44;5022947;28;20033;-75
2021/05/13 05:52:54;;;;;;;2.70;2.22;;;;;;;13.76;89.15;96723.34;5024149;28;20470;-76
2021/05/13 05:55:20;;;;;;;4.07;2.47;;;;;;;13.67;89.35;96730.91;5028483;28;20107;-75
2021/05/13 05:57:45;;;;;;;4.13;2.53;;;;;;;13.82;87.32;96726.66;5006718;28;20418;-75
2021/05/13 06:00:11;;;;;;;8.52;4.10;;;;;;;14.02;86.55;96728.44;5007032;28;20032;-76
2021/05/13 06:02:37;;;;;;;4.80;2.50;;;;;;;14.08;85.71;96729.81;5005047;28;20080;-74
2021/05/13 06:05:03;;;;;;;5.35;2.35;;;;;;;14.31;87.16;96725.41;5004314;28;20046;-74
2021/05/13 06:07:28;;;;;;;5.95;2.05;;;;;;;14.41;86.55;96718.59;5020140;28;20030;-75
2021/05/13 06:09:55;;;;;;;8.57;2.13;;;;;;;14.42;84.41;96725.72;4996362;28;21032;-78
2021/05/13 06:12:21;;;;;;;3.22;2.40;;;;;;;14.47;84.78;96719.97;5019929;28;20100;-73
2021/05/13 06:14:46;;;;;;;4.53;2.35;;;;;;;14.57;83.58;96724.16;5025775;28;20555;-82
2021/05/13 06:17:14;;;;;;;2.47;1.88;;;;;;;14.55;82.59;96709.94;5009427;28;20379;-77
2021/05/13 06:19:40;;;;;;;3.28;2.08;;;;;;;14.54;82.55;96719.34;5022988;28;20120;-82
2021/05/13 06:22:05;;;;;;;3.83;2.97;;;;;;;14.54;83.59;96717.41;5002902;28;20440;-77
2021/05/13 06:24:31;;;;;;;4.05;3.22;;;;;;;14.57;83.14;96719.44;5005306;28;20072;-79
2021/05/13 06:26:59;;;;;;;5.72;3.55;;;;;;;14.71;83.58;96717.09;5020106;28;20394;-79
2021/05/13 06:29:27;;;;;;;6.22;3.13;;;;;;;14.73;82.64;96725.78;5005124;28;20026;-78
2021/05/13 06:31:52;;;;;;;4.00;3.05;;;;;;;14.86;82.84;96719.06;5022045;28;20108;-78
2021/05/13 06:34:17;;;;;;;3.55;2.67;;;;;;;14.95;81.76;96722.44;5009873;28;20148;-78
2021/05/13 06:36:43;;;;;;;8.77;3.60;;;;;;;14.58;82.98;96710.03;5018303;28;20487;-75
2021/05/13 06:39:09;;;;;;;6.80;3.72;;;;;;;14.43;83.50;96710.81;5001611;28;20121;-76
2021/05/13 06:41:35;;;;;;;8.50;3.30;;;;;;;14.61;83.47;96706.59;4991470;28;20101;-75
2021/05/13 06:44:01;;;;;;;7.82;5.32;;;;;;;14.92;81.77;96722.34;5014998;28;20546;-77
2021/05/13 06:46:27;;;;;;;7.38;3.58;;;;;;;14.96;81.93;96707.53;5022197;28;20021;-76
2021/05/13 06:48:52;;;;;;;9.00;4.05;;;;;;;14.99;80.47;96706.03;5019880;28;20026;-76
2021/05/13 06:51:18;;;;;;;6.10;3.78;;;;;;;14.89;81.54;96707.34;5021115;28;20025;-75
2021/05/13 06:53:44;;;;;;;4.68;3.25;;;;;;;14.99;81.61;96715.09;5017210;28;20036;-76
2021/05/13 06:56:10;;;;;;;6.45;3.42;;;;;;;15.12;80.71;96706.75;5021326;28;20029;-75
2021/05/13 06:58:35;;;;;;;8.02;3.30;;;;;;;15.25;80.14;96708.25;5015968;28;20544;-75
2021/05/13 07:01:01;;;;;;;4.40;3.05;;;;;;;15.53;79.99;96711.72;5003048;28;20550;-76
2021/05/13 07:03:26;;;;;;;3.78;2.67;;;;;;;15.36;78.63;96706.53;5018209;28;20029;-78
2021/05/13 07:05:53;;;;;;;4.55;3.08;;;;;;;15.86;77.59;96712.09;5021033;28;20087;-80
2021/05/13 07:08:18;;;;;;;3.25;2.60;;;;;;;15.92;77.19;96701.56;5019844;28;20112;-80
2021/05/13 07:10:44;;;;;;;3.38;2.92;;;;;;;16.07;76.25;96712.56;5020273;28;20449;-77
2021/05/13 07:13:09;;;;;;;5.55;2.95;;;;;;;16.12;75.86;96710.69;5021855;28;20967;-78
2021/05/13 07:15:36;;;;;;;8.75;2.60;;;;;;;16.07;74.75;96701.53;5020150;28;20068;-79
2021/05/13 07:18:02;;;;;;;2.88;2.58;;;;;;;16.62;73.38;96693.19;5020785;28;20596;-78
2021/05/13 07:20:29;;;;;;;3.03;2.67;;;;;;;16.56;72.70;96689.94;5024268;28;20030;-78
2021/05/13 07:22:54;;;;;;;3.80;3.30;;;;;;;16.57;71.80;96691.56;5031390;28;20017;-82
2021/05/13 07:25:21;;;;;;;2.45;2.17;;;;;;;16.69;72.35;96685.88;5028230;28;20040;-80
2021/05/13 07:27:46;;;;;;;7.47;2.78;;;;;;;16.90;70.73;96689.00;5026936;28;20040;-81
2021/05/13 07:30:13;;;;;;;8.27;3.30;;;;;;;17.11;71.66;96683.84;5031496;28;20029;-82
2021/05/13 07:32:39;;;;;;;3.97;2.85;;;;;;;17.01;71.47;96695.50;5024303;28;20028;-80
2021/05/13 07:35:05;;;;;;;4.35;2.72;;;;;;;17.27;69.23;96683.72;5027998;28;20022;-80
2021/05/13 07:37:34;;;;;;;4.07;2.63;;;;;;;17.66;67.38;96681.63;5031491;28;20112;-85
2021/05/13 07:39:59;;;;;;;6.45;4.22;;;;;;;17.98;66.80;96688.38;5028498;28;20041;-82
2021/05/13 07:42:25;;;;;;;7.95;3.15;;;;;;;18.04;65.74;96691.66;5012617;28;20029;-85
2021/05/13 07:44:50;;;;;;;4.00;2.83;;;;;;;17.97;66.26;96675.75;5029468;28;20087;-84
2021/05/13 07:47:18;;;;;;;5.40;2.78;;;;;;;17.77;66.62;96688.09;5030507;28;20034;-82
2021/05/13 07:49:44;;;;;;;4.38;2.65;;;;;;;18.38;64.87;96678.63;5030962;28;20039;-83
2021/05/13 07:52:09;;;;;;;4.78;3.03;;;;;;;19.48;61.41;96684.16;5031441;28;20391;-82
2021/05/13 07:54:35;;;;;;;17.33;2.92;;;;;;;20.34;58.96;96679.94;5031048;28;20494;-82
2021/05/13 07:57:00;;;;;;;3.85;2.47;;;;;;;20.78;58.01;96683.28;5013341;28;20033;-83
2021/05/13 07:59:25;;;;;;;5.10;2.75;;;;;;;21.25;54.88;96677.44;5031449;28;20386;-82
2021/05/13 08:01:51;;;;;;;3.97;2.47;;;;;;;22.32;51.91;96683.72;5030490;28;20049;-79
2021/05/13 08:04:16;;;;;;;4.82;2.20;;;;;;;22.94;49.33;96679.09;5030336;28;20384;-79
2021/05/13 08:06:42;;;;;;;2.53;2.17;;;;;;;22.92;48.37;96672.31;5009689;28;20029;-79
2021/05/13 08:09:07;;;;;;;2.75;2.10;;;;;;;23.38;47.91;96672.81;5020794;28;20025;-79
2021/05/13 08:11:33;;;;;;;4.53;2.38;;;;;;;23.40;47.63;96672.41;5042864;28;20045;-79
2021/05/13 08:13:59;;;;;;;1.77;1.52;;;;;;;23.00;48.80;96667.47;5014851;28;20029;-80
2021/05/13 08:16:24;;;;;;;1.35;1.23;;;;;;;24.12;45.03;96674.19;5013938;28;20121;-80
2021/05/13 08:18:50;;;;;;;2.35;1.58;;;;;;;23.82;47.18;96674.06;5030525;28;20486;-80
2021/05/13 08:21:15;;;;;;;1.70;1.17;;;;;;;25.42;43.61;96668.91;5030739;28;20079;-81
2021/05/13 08:23:40;;;;;;;2.72;1.70;;;;;;;25.22;41.34;96667.19;5013425;28;20021;-82
2021/05/13 08:26:07;;;;;;;2.20;1.10;;;;;;;23.68;42.81;96674.97;5032287;28;20394;-80
2021/05/13 08:28:32;;;;;;;1.67;1.13;;;;;;;22.37;47.38;96667.38;5018490;28;20770;-82
2021/05/13 08:30:58;;;;;;;1.33;0.95;;;;;;;24.49;43.71;96660.19;5012043;28;20130;-82
2021/05/13 08:33:23;;;;;;;1.88;1.00;;;;;;;23.83;44.39;96658.91;4993357;28;20030;-81
2021/05/13 08:35:49;;;;;;;4.95;1.38;;;;;;;22.02;47.41;96659.13;5011237;28;20418;-82
2021/05/13 08:38:14;;;;;;;1.67;1.00;;;;;;;20.38;51.23;96630.75;4994248;28;20467;-83
2021/05/13 08:40:39;;;;;;;3.10;0.95;;;;;;;19.90;54.10;96653.13;5012343;28;20026;-84
2021/05/13 08:43:05;;;;;;;0.98;0.80;;;;;;;19.39;55.93;96650.34;5014926;28;20045;-83
2021/05/13 08:45:34;;;;;;;0.60;0.60;;;;;;;18.71;57.55;96639.84;5002008;28;20032;-84
2021/05/13 08:48:01;;;;;;;3.33;0.73;;;;;;;18.33;59.33;96654.03;5015669;28;20393;-85
2021/05/13 08:50:27;;;;;;;1.02;0.75;;;;;;;18.39;59.88;96656.09;5016305;28;20045;-84
2021/05/13 08:52:55;;;;;;;0.50;0.50;;;;;;;18.47;59.04;96648.66;5012781;28;20562;-86
2021/05/13 08:55:21;;;;;;;1.15;0.60;;;;;;;18.05;60.19;96655.28;5020450;28;20395;-83
2021/05/13 08:57:46;;;;;;;0.82;0.43;;;;;;;18.26;60.16;96665.03;5013286;28;20038;-82
2021/05/13 09:00:12;;;;;;;2.03;0.68;;;;;;;18.54;59.34;96655.09;5015283;28;20433;-85
2021/05/13 09:02:37;;;;;;;5.45;0.60;;;;;;;19.73;54.12;96657.38;5032850;28;20056;-85
2021/05/13 09:05:03;;;;;;;1.13;0.60;;;;;;;19.29;54.98;96664.16;5015290;28;20034;-85
2021/05/13 09:07:31;;;;;;;1.10;0.50;;;;;;;18.36;56.36;96662.38;5032687;28;20527;-83
2021/05/13 09:10:12;;;;;;;0.50;0.47;;;;;;;18.38;57.08;96667.56;5032573;28;20037;-86
2021/05/13 09:12:40;;;;;;;0.20;0.20;;;;;;;18.08;59.21;96662.81;5018231;28;20075;-84
2021/05/13 09:15:12;;;;;;;0.57;0.50;;;;;;;17.86;61.86;96654.59;5010446;28;20027;-84
2021/05/13 09:17:41;;;;;;;2.53;0.80;;;;;;;17.56;62.52;96660.91;5036244;28;20033;-84
2021/05/13 09:20:22;;;;;;;0.95;0.32;;;;;;;17.47;63.05;96662.31;5016160;28;20501;-83
2021/05/13 09:22:48;;;;;;;0.88;0.85;;;;;;;17.66;64.27;96656.72;5014220;28;20025;-84
2021/05/13 09:25:13;;;;;;;1.13;0.75;;;;;;;17.93;63.14;96663.81;5014389;28;20041;-85
2021/05/13 09:27:43;;;;;;;1.35;0.80;;;;;;;17.73;63.94;96667.88;5013673;28;20038;-84
2021/05/13 09:30:21;;;;;;;2.38;0.50;;;;;;;17.88;64.38;96653.09;5014776;28;20021;-85
2021/05/13 09:33:01;;;;;;;3.05;0.90;;;;;;;17.83;64.02;96647.84;5013868;28;20028;-85
2021/05/13 09:35:34;;;;;;;0.45;0.45;;;;;;;18.01;63.95;96654.44;5032013;28;20030;-86
2021/05/13 09:38:07;;;;;;;0.50;0.43;;;;;;;18.31;64.05;96642.53;5031785;28;20057;-84
2021/05/13 09:40:37;;;;;;;0.60;0.60;;;;;;;18.58;62.59;96638.53;5014212;28;20142;-83
2021/05/13 09:43:14;;;;;;;1.13;0.60;;;;;;;18.81;61.33;96655.78;5031479;28;20100;-85
2021/05/13 09:45:56;;;;;;;1.00;0.40;;;;;;;19.34;59.85;96647.16;5036452;28;20037;-84
2021/05/13 09:48:42;;;;;;;0.73;0.40;;;;;;;21.10;53.26;96650.03;5020589;28;20032;-84
2021/05/13 09:51:30;;;;;;;4.97;0.88;;;;;;;22.43;48.66;96660.19;4996679;28;20031;-84
2021/05/13 09:54:15;;;;;;;1.25;0.60;;;;;;;24.06;45.59;96667.41;4982491;28;20053;-82
2021/05/13 09:56:49;;;;;;;2.33;0.30;;;;;;;22.85;46.91;96659.22;4995619;28;20484;-84
2021/05/13 09:59:19;;;;;;;0.40;0.30;;;;;;;22.13;48.54;96665.47;5017859;28;20461;-86
2021/05/13 10:01:46;;;;;;;2.05;0.82;;;;;;;20.55;51.48;96655.03;5019721;28;20041;-86
2021/05/13 10:04:11;;;;;;;4.40;0.30;;;;;;;19.64;53.92;96662.47;5022472;28;21025;-88
2021/05/13 10:06:37;;;;;;;2.22;0.52;;;;;;;18.90;57.58;96663.78;5041003;28;20025;-87
2021/05/13 10:09:03;;;;;;;1.75;0.55;;;;;;;17.81;60.01;96655.75;5049481;28;20021;-87
2021/05/13 10:11:30;;;;;;;1.40;0.70;;;;;;;17.28;60.80;96654.13;5045910;28;20056;-87
2021/05/13 10:13:56;;;;;;;0.75;0.32;;;;;;;17.39;61.72;96660.59;5028102;28;20045;-86
2021/05/13 10:16:23;;;;;;;0.88;0.20;;;;;;;16.90;62.58;96660.59;5028073;28;20036;-86
2021/05/13 10:18:53;;;;;;;0.40;0.35;;;;;;;16.90;64.18;96644.81;5031928;28;20026;-87
2021/05/13 10:21:22;;;;;;;2.17;0.60;;;;;;;17.23;64.02;96657.22;5031716;28;20055;-87
2021/05/13 10:23:53;;;;;;;2.30;0.50;;;;;;;17.56;63.11;96660.13;5032585;28;20026;-88
2021/05/13 10:26:42;;;;;;;0.60;0.57;;;;;;;18.44;61.20;96655.78;5037599;28;20010;-84
2021/05/13 10:29:20;;;;;;;3.53;0.75;;;;;;;18.06;61.38;96651.34;5029918;28;20022;-86
2021/05/13 10:32:01;;;;;;;13.40;3.58;;;;;;;17.94;61.95;96659.09;5028825;28;20010;-85
2021/05/13 10:34:44;;;;;;;1.27;0.70;;;;;;;18.04;61.51;96656.44;5032287;28;20010;-87
2021/05/13 10:37:32;;;;;;;3.28;0.88;;;;;;;18.04;60.17;96653.66;5030703;28;20021;-87
2021/05/13 10:40:15;;;;;;;1.15;0.70;;;;;;;17.35;62.79;96663.34;5049375;28;20053;-86
2021/05/13 10:42:44;;;;;;;0.35;0.30;;;;;;;17.41;63.20;96659.09;5034181;28;20014;-85
2021/05/13 10:45:25;;;;;;;0.68;0.20;;;;;;;17.61;61.20;96665.31;5042317;28;20033;-87
2021/05/13 10:48:19;;;;;;;2.72;1.15;;;;;;;17.28;62.35;96660.44;5035813;28;20041;-86
2021/05/13 10:50:45;;;;;;;0.75;0.50;;;;;;;17.38;61.62;96664.56;5036437;28;20030;-87
2021/05/13 10:53:41;;;;;;;0.82;0.68;;;;;;;16.99;64.23;96659.19;5032300;28;20505;-88
2021/05/13 10:56:25;;;;;;;0.45;0.45;;;;;;;17.02;64.62;96658.44;5036198;28;20122;-85
2021/05/13 10:59:09;;;;;;;1.05;0.50;;;;;;;17.20;62.96;96666.25;5036224;28;20018;-87
2021/05/13 11:01:34;;;;;;;0.82;0.35;;;;;;;17.07;64.41;96666.41;5035019;28;20046;-85
2021/05/13 11:04:22;;;;;;;0.20;0.20;;;;;;;17.29;64.71;96666.78;5034656;28;20077;-85
2021/05/13 11:06:47;;;;;;;2.10;0.20;;;;;;;17.75;63.91;96668.31;5036283;28;20026;-86
2021/05/13 11:09:38;;;;;;;0.35;0.20;;;;;;;17.56;64.06;96663.69;5035120;28;20081;-86
2021/05/13 11:12:11;;;;;;;0.50;0.40;;;;;;;17.75;64.31;96662.78;5036275;28;20037;-86
2021/05/13 11:20:28;;;;;;;0.20;0.17;;;;;;;18.05;63.03;96663.56;5015302;28;20034;-85
2021/05/13 11:22:56;;;;;;;;;;;;;;;17.66;61.56;96659.50;4999176;28;20022;-87
2021/05/13 11:25:22;;;;;;;0.82;0.40;;;;;;;17.14;62.34;96654.69;4999276;28;19970;-87
2021/05/13 11:27:47;;;;;;;1.45;1.25;;;;;;;17.25;62.99;96647.38;4998370;28;20026;-86
2021/05/13 11:30:14;;;;;;;0.20;0.20;;;;;;;17.45;62.45;96664.66;5017333;28;20502;-87
2021/05/13 11:32:39;;;;;;;1.02;0.38;;;;;;;17.30;60.48;96657.31;5018611;28;20065;-85
2021/05/13 11:35:06;;;;;;;0.40;0.40;;;;;;;16.98;59.95;96654.81;5003304;28;20078;-86
2021/05/13 11:37:32;;;;;;;0.17;0.08;;;;;;;16.85;60.68;96658.13;5001587;28;20029;-85
2021/05/13 11:40:26;;;;;;;0.13;0.10;;;;;;;16.69;61.02;96649.16;5036471;28;20049;-86
2021/05/13 11:43:25;;;;;;;1.13;0.10;;;;;;;16.42;60.85;96642.69;5030355;28;20041;-86
2021/05/13 11:45:55;;;;;;;0.30;0.20;;;;;;;16.38;61.45;96641.84;5008012;28;20128;-87
2021/05/13 11:48:26;;;;;;;0.05;0.05;;;;;;;16.51;60.67;96648.78;5029679;28;20096;-87
2021/05/13 11:50:54;;;;;;;0.32;0.10;;;;;;;16.64;60.09;96655.78;5023713;28;20029;-87
2021/05/13 11:53:24;;;;;;;1.00;0.30;;;;;;;16.59;60.91;96658.84;5004725;28;20467;-86